sensor_id;sensor_type;location;lat;lon;timestamp;P1;durP1;ratioP1;P2;durP2;ratioP2
30862;SDS011;17573;55.922;37.540;2022-07-09T00:01:44;22.85;;;8.93;;
30862;SDS011;17573;55.922;37.540;2022-07-09T00:04:30;40.88;;;7.97;;
30862;SDS011;17573;55.922;37.540;2022-07-09T00:07:09;19.58;;;8.15;;
30862;SDS011;17573;55.922;37.540;2022-07-09T00:09:55;22.23;;;7.57;;
30862;SDS011;17573;55.922;37.540;2022-07-09T00:12:35;40.90;;;9.80;;
30862;SDS011;17573;55.922;37.540;2022-07-09T00:15:22;24.45;;;8.50;;
30862;SDS011;17573;55.922;37.540;2022-07-09T00:18:02;23.55;;;8.57;;
30862;SDS011;17573;55.922;37.540;2022-07-09T00:20:48;15.45;;;8.02;;
30862;SDS011;17573;55.922;37.540;2022-07-09T00:23:27;17.75;;;8.75;;
30862;SDS011;17573;55.922;37.540;2022-07-09T00:26:13;16.27;;;8.90;;
30862;SDS011;17573;55.922;37.540;2022-07-09T00:28:52;13.27;;;8.18;;
30862;SDS011;17573;55.922;37.540;2022-07-09T00:31:38;44.03;;;10.25;;
30862;SDS011;17573;55.922;37.540;2022-07-09T00:34:17;27.10;;;7.90;;
30862;SDS011;17573;55.922;37.540;2022-07-09T00:37:03;15.88;;;7.88;;
30862;SDS011;17573;55.922;37.540;2022-07-09T00:39:43;22.63;;;8.25;;
30862;SDS011;17573;55.922;37.540;2022-07-09T00:42:29;22.92;;;7.93;;
30862;SDS011;17573;55.922;37.540;2022-07-09T00:45:08;19.88;;;8.25;;
30862;SDS011;17573;55.922;37.540;2022-07-09T00:47:56;22.83;;;8.50;;
30862;SDS011;17573;55.922;37.540;2022-07-09T00:50:35;18.35;;;8.40;;
30862;SDS011;17573;55.922;37.540;2022-07-09T00:53:23;15.15;;;7.72;;
30862;SDS011;17573;55.922;37.540;2022-07-09T00:56:03;27.77;;;8.85;;
30862;SDS011;17573;55.922;37.540;2022-07-09T00:58:50;45.70;;;9.23;;
30862;SDS011;17573;55.922;37.540;2022-07-09T01:01:29;37.35;;;9.90;;
30862;SDS011;17573;55.922;37.540;2022-07-09T01:04:15;42.58;;;9.20;;
30862;SDS011;17573;55.922;37.540;2022-07-09T01:06:54;36.53;;;9.40;;
30862;SDS011;17573;55.922;37.540;2022-07-09T01:09:40;28.85;;;8.45;;
30862;SDS011;17573;55.922;37.540;2022-07-09T01:12:19;27.45;;;8.07;;
30862;SDS011;17573;55.922;37.540;2022-07-09T01:15:05;28.67;;;9.13;;
30862;SDS011;17573;55.922;37.540;2022-07-09T01:17:45;31.73;;;9.23;;
30862;SDS011;17573;55.922;37.540;2022-07-09T01:20:31;39.50;;;9.30;;
30862;SDS011;17573;55.922;37.540;2022-07-09T01:23:10;15.40;;;7.82;;
30862;SDS011;17573;55.922;37.540;2022-07-09T01:25:57;23.55;;;8.65;;
30862;SDS011;17573;55.922;37.540;2022-07-09T01:28:37;23.52;;;9.30;;
30862;SDS011;17573;55.922;37.540;2022-07-09T01:31:23;26.13;;;9.77;;
30862;SDS011;17573;55.922;37.540;2022-07-09T01:34:02;23.77;;;9.02;;
30862;SDS011;17573;55.922;37.540;2022-07-09T01:36:48;34.90;;;9.73;;
30862;SDS011;17573;55.922;37.540;2022-07-09T01:39:27;16.40;;;7.65;;
30862;SDS011;17573;55.922;37.540;2022-07-09T01:42:13;22.30;;;8.70;;
30862;SDS011;17573;55.922;37.540;2022-07-09T01:44:52;18.27;;;8.95;;
30862;SDS011;17573;55.922;37.540;2022-07-09T01:47:38;12.82;;;8.95;;
30862;SDS011;17573;55.922;37.540;2022-07-09T01:50:17;23.08;;;10.23;;
30862;SDS011;17573;55.922;37.540;2022-07-09T01:53:03;16.08;;;9.75;;
30862;SDS011;17573;55.922;37.540;2022-07-09T01:55:43;18.65;;;8.23;;
30862;SDS011;17573;55.922;37.540;2022-07-09T01:58:29;32.60;;;8.52;;
30862;SDS011;17573;55.922;37.540;2022-07-09T02:01:08;34.20;;;9.98;;
30862;SDS011;17573;55.922;37.540;2022-07-09T02:03:54;28.55;;;10.32;;
30862;SDS011;17573;55.922;37.540;2022-07-09T02:06:33;35.95;;;9.50;;
30862;SDS011;17573;55.922;37.540;2022-07-09T02:09:19;38.45;;;10.35;;
30862;SDS011;17573;55.922;37.540;2022-07-09T02:11:58;16.67;;;9.45;;
30862;SDS011;17573;55.922;37.540;2022-07-09T02:14:44;29.85;;;10.38;;
30862;SDS011;17573;55.922;37.540;2022-07-09T02:17:23;22.50;;;10.90;;
30862;SDS011;17573;55.922;37.540;2022-07-09T02:20:09;38.42;;;11.82;;
30862;SDS011;17573;55.922;37.540;2022-07-09T02:22:48;39.75;;;11.57;;
30862;SDS011;17573;55.922;37.540;2022-07-09T02:25:34;44.63;;;10.43;;
30862;SDS011;17573;55.922;37.540;2022-07-09T02:28:13;42.38;;;11.02;;
30862;SDS011;17573;55.922;37.540;2022-07-09T02:30:59;39.25;;;10.70;;
30862;SDS011;17573;55.922;37.540;2022-07-09T02:33:38;60.95;;;12.52;;
30862;SDS011;17573;55.922;37.540;2022-07-09T02:36:24;49.83;;;11.38;;
30862;SDS011;17573;55.922;37.540;2022-07-09T02:39:03;21.45;;;10.05;;
30862;SDS011;17573;55.922;37.540;2022-07-09T02:41:49;36.58;;;10.10;;
30862;SDS011;17573;55.922;37.540;2022-07-09T02:44:29;25.73;;;9.35;;
30862;SDS011;17573;55.922;37.540;2022-07-09T02:47:15;56.60;;;12.60;;
30862;SDS011;17573;55.922;37.540;2022-07-09T02:49:54;23.02;;;10.60;;
30862;SDS011;17573;55.922;37.540;2022-07-09T02:52:40;20.42;;;9.60;;
30862;SDS011;17573;55.922;37.540;2022-07-09T02:55:19;31.05;;;10.23;;
30862;SDS011;17573;55.922;37.540;2022-07-09T02:58:05;36.58;;;11.32;;
30862;SDS011;17573;55.922;37.540;2022-07-09T03:00:44;81.40;;;15.68;;
30862;SDS011;17573;55.922;37.540;2022-07-09T03:03:30;41.25;;;12.57;;
30862;SDS011;17573;55.922;37.540;2022-07-09T03:06:10;37.28;;;12.15;;
30862;SDS011;17573;55.922;37.540;2022-07-09T03:08:56;23.80;;;11.23;;
30862;SDS011;17573;55.922;37.540;2022-07-09T03:11:35;64.75;;;13.75;;
30862;SDS011;17573;55.922;37.540;2022-07-09T03:14:21;72.15;;;13.07;;
30862;SDS011;17573;55.922;37.540;2022-07-09T03:17:00;32.78;;;11.50;;
30862;SDS011;17573;55.922;37.540;2022-07-09T03:19:46;24.52;;;12.40;;
30862;SDS011;17573;55.922;37.540;2022-07-09T03:22:25;29.02;;;11.68;;
30862;SDS011;17573;55.922;37.540;2022-07-09T03:25:11;23.77;;;12.18;;
30862;SDS011;17573;55.922;37.540;2022-07-09T03:27:50;28.65;;;12.13;;
30862;SDS011;17573;55.922;37.540;2022-07-09T03:30:36;27.40;;;12.15;;
30862;SDS011;17573;55.922;37.540;2022-07-09T03:33:15;26.65;;;12.68;;
30862;SDS011;17573;55.922;37.540;2022-07-09T03:36:01;20.85;;;12.05;;
30862;SDS011;17573;55.922;37.540;2022-07-09T03:38:40;25.52;;;12.05;;
30862;SDS011;17573;55.922;37.540;2022-07-09T03:41:26;34.60;;;13.27;;
30862;SDS011;17573;55.922;37.540;2022-07-09T03:44:05;34.95;;;14.93;;
30862;SDS011;17573;55.922;37.540;2022-07-09T03:46:51;25.50;;;13.38;;
30862;SDS011;17573;55.922;37.540;2022-07-09T03:49:30;28.35;;;11.70;;
30862;SDS011;17573;55.922;37.540;2022-07-09T03:52:16;21.45;;;12.65;;
30862;SDS011;17573;55.922;37.540;2022-07-09T03:54:55;24.13;;;14.55;;
30862;SDS011;17573;55.922;37.540;2022-07-09T03:57:41;33.25;;;13.45;;
30862;SDS011;17573;55.922;37.540;2022-07-09T04:00:21;25.65;;;13.63;;
30862;SDS011;17573;55.922;37.540;2022-07-09T04:03:07;24.73;;;13.35;;
30862;SDS011;17573;55.922;37.540;2022-07-09T04:05:46;23.55;;;13.38;;
30862;SDS011;17573;55.922;37.540;2022-07-09T04:08:32;27.85;;;14.23;;
30862;SDS011;17573;55.922;37.540;2022-07-09T04:11:11;35.08;;;13.77;;
30862;SDS011;17573;55.922;37.540;2022-07-09T04:13:57;27.83;;;12.52;;
30862;SDS011;17573;55.922;37.540;2022-07-09T04:16:39;31.80;;;13.75;;
30862;SDS011;17573;55.922;37.540;2022-07-09T04:19:26;26.35;;;13.00;;
30862;SDS011;17573;55.922;37.540;2022-07-09T04:22:05;21.77;;;11.07;;
30862;SDS011;17573;55.922;37.540;2022-07-09T04:24:51;17.40;;;10.98;;
30862;SDS011;17573;55.922;37.540;2022-07-09T04:27:30;15.60;;;9.43;;
30862;SDS011;17573;55.922;37.540;2022-07-09T04:30:17;22.80;;;9.88;;
30862;SDS011;17573;55.922;37.540;2022-07-09T04:32:56;19.75;;;9.27;;
30862;SDS011;17573;55.922;37.540;2022-07-09T04:35:42;14.32;;;8.70;;
30862;SDS011;17573;55.922;37.540;2022-07-09T04:38:21;15.35;;;8.75;;
30862;SDS011;17573;55.922;37.540;2022-07-09T04:41:07;18.08;;;8.95;;
30862;SDS011;17573;55.922;37.540;2022-07-09T04:43:46;18.83;;;9.77;;
30862;SDS011;17573;55.922;37.540;2022-07-09T04:46:32;25.73;;;9.68;;
30862;SDS011;17573;55.922;37.540;2022-07-09T04:49:11;13.50;;;9.10;;
30862;SDS011;17573;55.922;37.540;2022-07-09T04:51:57;15.63;;;7.53;;
30862;SDS011;17573;55.922;37.540;2022-07-09T04:54:36;16.52;;;8.85;;
30862;SDS011;17573;55.922;37.540;2022-07-09T04:57:22;13.00;;;7.18;;
30862;SDS011;17573;55.922;37.540;2022-07-09T05:00:02;11.05;;;7.68;;
30862;SDS011;17573;55.922;37.540;2022-07-09T05:02:49;17.17;;;8.65;;
30862;SDS011;17573;55.922;37.540;2022-07-09T05:05:28;14.20;;;6.60;;
30862;SDS011;17573;55.922;37.540;2022-07-09T05:08:14;15.82;;;6.18;;
30862;SDS011;17573;55.922;37.540;2022-07-09T05:10:53;13.77;;;5.97;;
30862;SDS011;17573;55.922;37.540;2022-07-09T05:13:39;11.98;;;6.10;;
30862;SDS011;17573;55.922;37.540;2022-07-09T05:16:21;9.05;;;4.97;;
30862;SDS011;17573;55.922;37.540;2022-07-09T05:19:07;20.70;;;6.15;;
30862;SDS011;17573;55.922;37.540;2022-07-09T05:21:46;5.28;;;3.83;;
30862;SDS011;17573;55.922;37.540;2022-07-09T05:24:32;13.18;;;4.38;;
30862;SDS011;17573;55.922;37.540;2022-07-09T05:27:11;5.82;;;3.38;;
30862;SDS011;17573;55.922;37.540;2022-07-09T05:29:57;5.80;;;3.30;;
30862;SDS011;17573;55.922;37.540;2022-07-09T05:32:37;5.88;;;4.13;;
30862;SDS011;17573;55.922;37.540;2022-07-09T05:35:23;9.90;;;3.35;;
30862;SDS011;17573;55.922;37.540;2022-07-09T05:38:02;4.00;;;3.22;;
30862;SDS011;17573;55.922;37.540;2022-07-09T05:40:48;5.95;;;3.33;;
30862;SDS011;17573;55.922;37.540;2022-07-09T05:43:27;4.32;;;3.80;;
30862;SDS011;17573;55.922;37.540;2022-07-09T05:46:13;7.22;;;3.13;;
30862;SDS011;17573;55.922;37.540;2022-07-09T05:48:52;4.20;;;2.90;;
30862;SDS011;17573;55.922;37.540;2022-07-09T05:51:38;5.97;;;2.70;;
30862;SDS011;17573;55.922;37.540;2022-07-09T05:54:17;6.82;;;3.10;;
30862;SDS011;17573;55.922;37.540;2022-07-09T05:57:03;5.88;;;3.28;;
30862;SDS011;17573;55.922;37.540;2022-07-09T05:59:42;13.77;;;3.15;;
30862;SDS011;17573;55.922;37.540;2022-07-09T06:02:28;11.43;;;3.33;;
30862;SDS011;17573;55.922;37.540;2022-07-09T06:05:07;4.75;;;3.78;;
30862;SDS011;17573;55.922;37.540;2022-07-09T06:07:53;2.85;;;2.35;;
30862;SDS011;17573;55.922;37.540;2022-07-09T06:10:32;6.13;;;2.03;;
30862;SDS011;17573;55.922;37.540;2022-07-09T06:13:18;7.10;;;2.63;;
30862;SDS011;17573;55.922;37.540;2022-07-09T06:15:57;5.68;;;2.65;;
30862;SDS011;17573;55.922;37.540;2022-07-09T06:18:43;6.32;;;2.70;;
30862;SDS011;17573;55.922;37.540;2022-07-09T06:21:22;6.95;;;2.90;;
30862;SDS011;17573;55.922;37.540;2022-07-09T06:24:08;4.30;;;2.65;;
30862;SDS011;17573;55.922;37.540;2022-07-09T06:26:47;8.20;;;3.20;;
30862;SDS011;17573;55.922;37.540;2022-07-09T06:29:33;6.53;;;2.30;;
30862;SDS011;17573;55.922;37.540;2022-07-09T06:32:12;4.22;;;2.38;;
30862;SDS011;17573;55.922;37.540;2022-07-09T06:34:58;5.75;;;2.88;;
30862;SDS011;17573;55.922;37.540;2022-07-09T06:37:37;10.20;;;2.83;;
30862;SDS011;17573;55.922;37.540;2022-07-09T06:40:23;4.88;;;2.80;;
30862;SDS011;17573;55.922;37.540;2022-07-09T06:43:03;4.60;;;2.67;;
30862;SDS011;17573;55.922;37.540;2022-07-09T06:45:52;10.87;;;3.10;;
30862;SDS011;17573;55.922;37.540;2022-07-09T06:48:32;13.73;;;3.10;;
30862;SDS011;17573;55.922;37.540;2022-07-09T06:51:18;18.48;;;4.32;;
30862;SDS011;17573;55.922;37.540;2022-07-09T06:53:57;13.73;;;3.78;;
30862;SDS011;17573;55.922;37.540;2022-07-09T06:56:43;13.90;;;3.83;;
30862;SDS011;17573;55.922;37.540;2022-07-09T06:59:23;7.18;;;3.08;;
30862;SDS011;17573;55.922;37.540;2022-07-09T07:02:09;16.20;;;3.38;;
30862;SDS011;17573;55.922;37.540;2022-07-09T07:04:48;10.77;;;3.83;;
30862;SDS011;17573;55.922;37.540;2022-07-09T07:07:35;6.88;;;2.88;;
30862;SDS011;17573;55.922;37.540;2022-07-09T07:10:14;8.55;;;3.30;;
30862;SDS011;17573;55.922;37.540;2022-07-09T07:13:00;6.60;;;2.88;;
30862;SDS011;17573;55.922;37.540;2022-07-09T07:15:39;32.92;;;3.70;;
30862;SDS011;17573;55.922;37.540;2022-07-09T07:21:08;6.50;;;2.40;;
30862;SDS011;17573;55.922;37.540;2022-07-09T07:23:54;9.90;;;3.45;;
30862;SDS011;17573;55.922;37.540;2022-07-09T07:26:33;9.45;;;3.83;;
30862;SDS011;17573;55.922;37.540;2022-07-09T07:29:20;31.38;;;4.38;;
30862;SDS011;17573;55.922;37.540;2022-07-09T07:31:59;15.57;;;2.33;;
30862;SDS011;17573;55.922;37.540;2022-07-09T07:34:45;10.95;;;2.50;;
30862;SDS011;17573;55.922;37.540;2022-07-09T07:37:26;10.02;;;3.38;;
30862;SDS011;17573;55.922;37.540;2022-07-09T07:40:12;11.88;;;3.25;;
30862;SDS011;17573;55.922;37.540;2022-07-09T07:42:51;17.25;;;3.90;;
30862;SDS011;17573;55.922;37.540;2022-07-09T07:45:37;14.45;;;2.65;;
30862;SDS011;17573;55.922;37.540;2022-07-09T07:48:16;12.85;;;3.17;;
30862;SDS011;17573;55.922;37.540;2022-07-09T07:51:02;26.00;;;3.13;;
30862;SDS011;17573;55.922;37.540;2022-07-09T07:53:43;8.23;;;2.63;;
30862;SDS011;17573;55.922;37.540;2022-07-09T07:56:29;5.22;;;2.60;;
30862;SDS011;17573;55.922;37.540;2022-07-09T07:59:11;5.45;;;1.90;;
30862;SDS011;17573;55.922;37.540;2022-07-09T08:01:57;7.00;;;2.35;;
30862;SDS011;17573;55.922;37.540;2022-07-09T08:04:36;7.60;;;2.40;;
30862;SDS011;17573;55.922;37.540;2022-07-09T08:07:22;6.75;;;2.55;;
30862;SDS011;17573;55.922;37.540;2022-07-09T08:10:01;21.90;;;2.20;;
30862;SDS011;17573;55.922;37.540;2022-07-09T08:12:47;6.88;;;1.98;;
30862;SDS011;17573;55.922;37.540;2022-07-09T08:15:26;2.80;;;1.90;;
30862;SDS011;17573;55.922;37.540;2022-07-09T08:18:12;3.78;;;2.20;;
30862;SDS011;17573;55.922;37.540;2022-07-09T08:20:52;8.15;;;2.33;;
30862;SDS011;17573;55.922;37.540;2022-07-09T08:23:38;7.22;;;2.65;;
30862;SDS011;17573;55.922;37.540;2022-07-09T08:26:32;3.95;;;2.25;;
30862;SDS011;17573;55.922;37.540;2022-07-09T08:29:18;6.07;;;2.78;;
30862;SDS011;17573;55.922;37.540;2022-07-09T08:31:57;6.72;;;3.00;;
30862;SDS011;17573;55.922;37.540;2022-07-09T08:34:43;5.03;;;2.80;;
30862;SDS011;17573;55.922;37.540;2022-07-09T08:37:22;11.75;;;3.45;;
30862;SDS011;17573;55.922;37.540;2022-07-09T08:40:11;4.20;;;2.90;;
30862;SDS011;17573;55.922;37.540;2022-07-09T08:42:50;21.33;;;4.15;;
30862;SDS011;17573;55.922;37.540;2022-07-09T08:45:41;10.23;;;2.88;;
30862;SDS011;17573;55.922;37.540;2022-07-09T08:48:21;8.73;;;2.83;;
30862;SDS011;17573;55.922;37.540;2022-07-09T08:51:07;13.40;;;2.90;;
30862;SDS011;17573;55.922;37.540;2022-07-09T08:53:46;18.73;;;5.18;;
30862;SDS011;17573;55.922;37.540;2022-07-09T08:56:32;10.00;;;3.30;;
30862;SDS011;17573;55.922;37.540;2022-07-09T08:59:11;11.63;;;3.22;;
30862;SDS011;17573;55.922;37.540;2022-07-09T09:01:57;12.60;;;4.28;;
30862;SDS011;17573;55.922;37.540;2022-07-09T09:04:36;33.67;;;4.30;;
30862;SDS011;17573;55.922;37.540;2022-07-09T09:07:22;9.80;;;2.90;;
30862;SDS011;17573;55.922;37.540;2022-07-09T09:10:01;8.23;;;3.22;;
30862;SDS011;17573;55.922;37.540;2022-07-09T09:12:47;10.93;;;4.13;;
30862;SDS011;17573;55.922;37.540;2022-07-09T09:15:26;11.15;;;5.07;;
30862;SDS011;17573;55.922;37.540;2022-07-09T09:18:13;18.35;;;5.13;;
30862;SDS011;17573;55.922;37.540;2022-07-09T09:20:52;12.20;;;4.22;;
30862;SDS011;17573;55.922;37.540;2022-07-09T09:23:45;17.60;;;4.28;;
30862;SDS011;17573;55.922;37.540;2022-07-09T09:26:28;19.05;;;4.35;;
30862;SDS011;17573;55.922;37.540;2022-07-09T09:29:14;11.88;;;4.50;;
30862;SDS011;17573;55.922;37.540;2022-07-09T09:31:54;15.75;;;4.22;;
30862;SDS011;17573;55.922;37.540;2022-07-09T09:34:40;13.10;;;4.88;;
30862;SDS011;17573;55.922;37.540;2022-07-09T09:37:29;13.55;;;4.80;;
30862;SDS011;17573;55.922;37.540;2022-07-09T09:40:15;21.42;;;5.53;;
30862;SDS011;17573;55.922;37.540;2022-07-09T09:42:55;22.83;;;5.57;;
30862;SDS011;17573;55.922;37.540;2022-07-09T09:45:41;14.05;;;4.85;;
30862;SDS011;17573;55.922;37.540;2022-07-09T09:48:20;12.35;;;5.53;;
30862;SDS011;17573;55.922;37.540;2022-07-09T09:51:09;16.75;;;6.20;;
30862;SDS011;17573;55.922;37.540;2022-07-09T09:53:49;20.65;;;5.63;;
30862;SDS011;17573;55.922;37.540;2022-07-09T09:56:36;17.75;;;6.03;;
30862;SDS011;17573;55.922;37.540;2022-07-09T09:59:17;12.18;;;5.18;;
30862;SDS011;17573;55.922;37.540;2022-07-09T10:02:06;17.23;;;5.50;;
30862;SDS011;17573;55.922;37.540;2022-07-09T10:04:47;16.92;;;5.03;;
30862;SDS011;17573;55.922;37.540;2022-07-09T10:07:35;13.73;;;6.22;;
30862;SDS011;17573;55.922;37.540;2022-07-09T10:10:18;9.05;;;4.78;;
30862;SDS011;17573;55.922;37.540;2022-07-09T10:13:05;10.18;;;5.53;;
30862;SDS011;17573;55.922;37.540;2022-07-09T10:15:48;13.85;;;6.28;;
30862;SDS011;17573;55.922;37.540;2022-07-09T10:18:34;11.38;;;6.03;;
30862;SDS011;17573;55.922;37.540;2022-07-09T10:21:13;15.60;;;6.68;;
30862;SDS011;17573;55.922;37.540;2022-07-09T10:23:59;18.38;;;6.13;;
30862;SDS011;17573;55.922;37.540;2022-07-09T10:29:28;23.17;;;6.10;;
30862;SDS011;17573;55.922;37.540;2022-07-09T10:32:07;16.98;;;6.88;;
30862;SDS011;17573;55.922;37.540;2022-07-09T10:34:54;20.90;;;6.38;;
30862;SDS011;17573;55.922;37.540;2022-07-09T10:40:36;16.23;;;6.90;;
30862;SDS011;17573;55.922;37.540;2022-07-09T10:43:16;17.83;;;6.20;;
30862;SDS011;17573;55.922;37.540;2022-07-09T10:46:08;18.92;;;7.00;;
30862;SDS011;17573;55.922;37.540;2022-07-09T10:48:51;22.88;;;9.38;;
30862;SDS011;17573;55.922;37.540;2022-07-09T10:51:37;31.30;;;8.18;;
30862;SDS011;17573;55.922;37.540;2022-07-09T10:54:16;21.50;;;7.30;;
30862;SDS011;17573;55.922;37.540;2022-07-09T10:57:02;24.33;;;7.47;;
30862;SDS011;17573;55.922;37.540;2022-07-09T10:59:45;27.58;;;7.28;;
30862;SDS011;17573;55.922;37.540;2022-07-09T11:02:31;21.63;;;6.43;;
30862;SDS011;17573;55.922;37.540;2022-07-09T11:05:10;19.02;;;6.20;;
30862;SDS011;17573;55.922;37.540;2022-07-09T11:08:06;16.95;;;6.35;;
30862;SDS011;17573;55.922;37.540;2022-07-09T11:10:45;21.10;;;6.75;;
30862;SDS011;17573;55.922;37.540;2022-07-09T11:13:31;10.30;;;5.53;;
30862;SDS011;17573;55.922;37.540;2022-07-09T11:16:10;31.65;;;6.85;;
30862;SDS011;17573;55.922;37.540;2022-07-09T11:18:56;41.67;;;7.20;;
30862;SDS011;17573;55.922;37.540;2022-07-09T11:21:36;9.40;;;4.13;;
30862;SDS011;17573;55.922;37.540;2022-07-09T11:24:22;15.23;;;4.45;;
30862;SDS011;17573;55.922;37.540;2022-07-09T11:27:04;17.65;;;4.03;;
30862;SDS011;17573;55.922;37.540;2022-07-09T11:29:51;23.15;;;4.60;;
30862;SDS011;17573;55.922;37.540;2022-07-09T11:32:30;17.05;;;3.08;;
30862;SDS011;17573;55.922;37.540;2022-07-09T11:35:27;11.80;;;2.58;;
30862;SDS011;17573;55.922;37.540;2022-07-09T11:38:09;5.43;;;2.65;;
30862;SDS011;17573;55.922;37.540;2022-07-09T11:41:02;8.63;;;2.67;;
30862;SDS011;17573;55.922;37.540;2022-07-09T11:43:51;3.35;;;1.80;;
30862;SDS011;17573;55.922;37.540;2022-07-09T11:46:37;5.57;;;2.50;;
30862;SDS011;17573;55.922;37.540;2022-07-09T11:49:16;2.58;;;2.33;;
30862;SDS011;17573;55.922;37.540;2022-07-09T11:52:03;14.18;;;4.10;;
30862;SDS011;17573;55.922;37.540;2022-07-09T11:55:28;19.92;;;4.55;;
30862;SDS011;17573;55.922;37.540;2022-07-09T11:57:54;21.23;;;3.47;;
30862;SDS011;17573;55.922;37.540;2022-07-09T12:00:35;12.32;;;3.58;;
30862;SDS011;17573;55.922;37.540;2022-07-09T12:03:26;12.18;;;3.22;;
30862;SDS011;17573;55.922;37.540;2022-07-09T12:06:06;13.65;;;4.43;;
30862;SDS011;17573;55.922;37.540;2022-07-09T12:09:02;12.00;;;3.75;;
30862;SDS011;17573;55.922;37.540;2022-07-09T12:11:43;31.92;;;8.07;;
30862;SDS011;17573;55.922;37.540;2022-07-09T12:14:29;33.45;;;6.55;;
30862;SDS011;17573;55.922;37.540;2022-07-09T12:17:17;55.15;;;8.05;;
30862;SDS011;17573;55.922;37.540;2022-07-09T12:20:03;39.95;;;8.02;;
30862;SDS011;17573;55.922;37.540;2022-07-09T12:22:45;21.33;;;8.65;;
30862;SDS011;17573;55.922;37.540;2022-07-09T12:25:31;15.18;;;5.60;;
30862;SDS011;17573;55.922;37.540;2022-07-09T12:28:10;23.70;;;7.10;;
30862;SDS011;17573;55.922;37.540;2022-07-09T12:30:56;35.90;;;6.80;;
30862;SDS011;17573;55.922;37.540;2022-07-09T12:33:35;20.10;;;5.25;;
30862;SDS011;17573;55.922;37.540;2022-07-09T12:36:21;13.55;;;5.32;;
30862;SDS011;17573;55.922;37.540;2022-07-09T12:39:00;9.52;;;5.53;;
30862;SDS011;17573;55.922;37.540;2022-07-09T12:41:46;14.00;;;9.35;;
30862;SDS011;17573;55.922;37.540;2022-07-09T12:44:25;12.50;;;5.80;;
30862;SDS011;17573;55.922;37.540;2022-07-09T12:47:11;17.77;;;5.95;;
30862;SDS011;17573;55.922;37.540;2022-07-09T12:49:50;16.80;;;6.25;;
30862;SDS011;17573;55.922;37.540;2022-07-09T12:52:36;8.30;;;5.85;;
30862;SDS011;17573;55.922;37.540;2022-07-09T12:55:15;8.15;;;5.30;;
30862;SDS011;17573;55.922;37.540;2022-07-09T12:58:01;12.82;;;6.72;;
30862;SDS011;17573;55.922;37.540;2022-07-09T13:00:40;17.83;;;8.30;;
30862;SDS011;17573;55.922;37.540;2022-07-09T13:03:26;16.35;;;6.22;;
30862;SDS011;17573;55.922;37.540;2022-07-09T13:06:05;33.78;;;6.22;;
30862;SDS011;17573;55.922;37.540;2022-07-09T13:09:09;24.98;;;7.13;;
30862;SDS011;17573;55.922;37.540;2022-07-09T13:11:49;48.85;;;6.63;;
30862;SDS011;17573;55.922;37.540;2022-07-09T13:14:35;12.13;;;5.35;;
30862;SDS011;17573;55.922;37.540;2022-07-09T13:17:14;13.98;;;5.20;;
30862;SDS011;17573;55.922;37.540;2022-07-09T13:20:00;45.75;;;7.40;;
30862;SDS011;17573;55.922;37.540;2022-07-09T13:22:39;26.30;;;7.28;;
30862;SDS011;17573;55.922;37.540;2022-07-09T13:25:25;13.02;;;4.80;;
30862;SDS011;17573;55.922;37.540;2022-07-09T13:28:04;20.20;;;5.50;;
30862;SDS011;17573;55.922;37.540;2022-07-09T13:30:51;19.98;;;6.13;;
30862;SDS011;17573;55.922;37.540;2022-07-09T13:33:30;10.60;;;4.75;;
30862;SDS011;17573;55.922;37.540;2022-07-09T13:36:16;13.00;;;6.53;;
30862;SDS011;17573;55.922;37.540;2022-07-09T13:38:55;28.00;;;6.18;;
30862;SDS011;17573;55.922;37.540;2022-07-09T13:41:41;53.70;;;8.73;;
30862;SDS011;17573;55.922;37.540;2022-07-09T13:44:20;12.77;;;5.28;;
30862;SDS011;17573;55.922;37.540;2022-07-09T13:47:06;23.45;;;6.35;;
30862;SDS011;17573;55.922;37.540;2022-07-09T13:49:45;10.98;;;5.50;;
30862;SDS011;17573;55.922;37.540;2022-07-09T13:52:31;29.13;;;5.65;;
30862;SDS011;17573;55.922;37.540;2022-07-09T13:55:10;14.07;;;6.25;;
30862;SDS011;17573;55.922;37.540;2022-07-09T13:57:56;19.13;;;5.90;;
30862;SDS011;17573;55.922;37.540;2022-07-09T14:00:35;194.23;;;18.38;;
30862;SDS011;17573;55.922;37.540;2022-07-09T14:03:21;85.13;;;13.30;;
30862;SDS011;17573;55.922;37.540;2022-07-09T14:06:00;31.33;;;7.97;;
30862;SDS011;17573;55.922;37.540;2022-07-09T14:08:46;15.05;;;6.25;;
30862;SDS011;17573;55.922;37.540;2022-07-09T14:11:25;117.78;;;15.88;;
30862;SDS011;17573;55.922;37.540;2022-07-09T14:14:11;37.90;;;9.20;;
30862;SDS011;17573;55.922;37.540;2022-07-09T14:16:50;25.02;;;6.90;;
30862;SDS011;17573;55.922;37.540;2022-07-09T14:19:36;23.95;;;7.57;;
30862;SDS011;17573;55.922;37.540;2022-07-09T14:22:15;14.20;;;6.68;;
30862;SDS011;17573;55.922;37.540;2022-07-09T14:25:01;104.05;;;12.85;;
30862;SDS011;17573;55.922;37.540;2022-07-09T14:27:40;52.22;;;9.05;;
30862;SDS011;17573;55.922;37.540;2022-07-09T14:30:26;13.13;;;5.80;;
30862;SDS011;17573;55.922;37.540;2022-07-09T14:33:05;15.82;;;7.32;;
30862;SDS011;17573;55.922;37.540;2022-07-09T14:35:51;17.23;;;6.80;;
30862;SDS011;17573;55.922;37.540;2022-07-09T14:38:30;37.55;;;6.50;;
30862;SDS011;17573;55.922;37.540;2022-07-09T14:41:16;44.63;;;8.63;;
30862;SDS011;17573;55.922;37.540;2022-07-09T14:43:55;21.88;;;6.57;;
30862;SDS011;17573;55.922;37.540;2022-07-09T14:46:41;13.68;;;7.43;;
30862;SDS011;17573;55.922;37.540;2022-07-09T14:49:20;97.88;;;13.02;;
30862;SDS011;17573;55.922;37.540;2022-07-09T14:52:14;49.83;;;9.57;;
30862;SDS011;17573;55.922;37.540;2022-07-09T14:54:53;54.17;;;11.77;;
30862;SDS011;17573;55.922;37.540;2022-07-09T14:57:39;29.85;;;9.77;;
30862;SDS011;17573;55.922;37.540;2022-07-09T15:00:18;197.90;;;25.95;;
30862;SDS011;17573;55.922;37.540;2022-07-09T15:03:04;114.60;;;16.15;;
30862;SDS011;17573;55.922;37.540;2022-07-09T15:05:43;72.13;;;12.43;;
30862;SDS011;17573;55.922;37.540;2022-07-09T15:08:29;38.70;;;7.32;;
30862;SDS011;17573;55.922;37.540;2022-07-09T15:11:10;46.65;;;9.52;;
30862;SDS011;17573;55.922;37.540;2022-07-09T15:13:56;18.40;;;8.93;;
30862;SDS011;17573;55.922;37.540;2022-07-09T15:16:35;22.60;;;7.95;;
30862;SDS011;17573;55.922;37.540;2022-07-09T15:19:21;14.70;;;7.50;;
30862;SDS011;17573;55.922;37.540;2022-07-09T15:22:00;14.73;;;7.15;;
30862;SDS011;17573;55.922;37.540;2022-07-09T15:24:46;50.17;;;9.90;;
30862;SDS011;17573;55.922;37.540;2022-07-09T15:27:28;32.03;;;9.50;;
30862;SDS011;17573;55.922;37.540;2022-07-09T15:30:14;39.47;;;10.48;;
30862;SDS011;17573;55.922;37.540;2022-07-09T15:32:57;22.48;;;8.60;;
30862;SDS011;17573;55.922;37.540;2022-07-09T15:35:43;17.55;;;7.70;;
30862;SDS011;17573;55.922;37.540;2022-07-09T15:38:22;173.75;;;23.40;;
30862;SDS011;17573;55.922;37.540;2022-07-09T15:41:08;52.35;;;12.25;;
30862;SDS011;17573;55.922;37.540;2022-07-09T15:43:49;51.90;;;25.98;;
30862;SDS011;17573;55.922;37.540;2022-07-09T15:46:35;38.47;;;12.77;;
30862;SDS011;17573;55.922;37.540;2022-07-09T15:49:14;28.83;;;8.60;;
30862;SDS011;17573;55.922;37.540;2022-07-09T15:52:00;14.70;;;8.05;;
30862;SDS011;17573;55.922;37.540;2022-07-09T15:54:40;28.23;;;8.38;;
30862;SDS011;17573;55.922;37.540;2022-07-09T15:57:25;83.93;;;12.75;;
30862;SDS011;17573;55.922;37.540;2022-07-09T16:00:06;20.30;;;11.00;;
30862;SDS011;17573;55.922;37.540;2022-07-09T16:03:02;40.80;;;11.35;;